Time;durP1;ratioP1;P1;durP2;ratioP2;P2;SDS_P1;SDS_P2;PMS_P1;PMS_P2;Temp;Humidity;BMP_temperature;BMP_pressure;BME280_temperature;BME280_humidity;BME280_pressure;Samples;Min_cycle;Max_cycle;Signal;HPM_P1;HPM_P2
2021/04/11 00:00:51;;;;;;;13.77;9.07;;;6.00;99.90;;;;;;4380746;32;20088;-56
2021/04/11 00:03:21;;;;;;;12.77;8.52;;;5.90;99.90;;;;;;4391709;32;20489;-56
2021/04/11 00:05:47;;;;;;;12.50;8.52;;;5.90;99.90;;;;;;4387494;32;20086;-57
2021/04/11 00:08:15;;;;;;;13.55;9.00;;;5.80;99.90;;;;;;4385149;32;20484;-57
2021/04/11 00:10:44;;;;;;;14.18;8.50;;;5.90;99.90;;;;;;4344566;32;20082;-56
2021/04/11 00:13:19;;;;;;;13.25;8.32;;;5.80;99.90;;;;;;4389179;32;20537;-57
2021/04/11 00:15:45;;;;;;;13.30;9.88;;;5.80;99.90;;;;;;4375425;32;20083;-58
2021/04/11 00:18:11;;;;;;;11.98;9.10;;;5.70;99.90;;;;;;4371779;32;20077;-58
2021/04/11 00:20:37;;;;;;;12.63;9.63;;;5.60;99.90;;;;;;4383240;32;20077;-56
2021/04/11 00:23:04;;;;;;;12.85;9.30;;;5.60;99.90;;;;;;4389238;32;20488;-57
2021/04/11 00:25:33;;;;;;;10.15;7.60;;;5.60;99.90;;;;;;4367357;32;20072;-57
2021/04/11 00:27:59;;;;;;;11.63;7.78;;;5.50;99.90;;;;;;4385218;32;20066;-56
2021/04/11 00:30:26;;;;;;;13.38;7.45;;;5.50;99.90;;;;;;4386916;32;20145;-57
2021/04/11 00:32:54;;;;;;;10.90;7.20;;;5.40;99.90;;;;;;4381281;32;20150;-57
2021/04/11 00:35:21;;;;;;;9.88;7.47;;;5.40;99.90;;;;;;4388960;32;20540;-57
2021/04/11 00:37:47;;;;;;;9.68;7.57;;;5.50;99.90;;;;;;4381564;32;20147;-56
2021/04/11 00:40:35;;;;;;;10.10;7.65;;;5.20;99.90;;;;;;4372063;32;20106;-58
2021/04/11 00:43:08;;;;;;;10.85;7.62;;;5.20;99.90;;;;;;4371943;32;20077;-58
2021/04/11 00:45:50;;;;;;;9.85;7.75;;;5.20;99.90;;;;;;4367725;32;20085;-57
2021/04/11 00:48:17;;;;;;;11.23;7.47;;;5.20;99.90;;;;;;4384118;32;20093;-57
2021/04/11 00:51:12;;;;;;;9.98;6.85;;;5.30;99.90;;;;;;4361696;32;20514;-57
2021/04/11 00:53:38;;;;;;;10.80;7.65;;;5.20;99.90;;;;;;4387478;32;20546;-57
2021/04/11 00:56:05;;;;;;;10.00;7.78;;;5.20;99.90;;;;;;4369440;32;20086;-57
2021/04/11 00:58:32;;;;;;;10.20;7.15;;;5.20;99.90;;;;;;4363851;32;20081;-58
2021/04/11 01:00:58;;;;;;;9.60;7.60;;;5.30;99.90;;;;;;4369709;32;20163;-57
2021/04/11 01:03:36;;;;;;;11.30;8.07;;;5.30;99.90;;;;;;4379159;32;20137;-56
2021/04/11 01:06:07;;;;;;;10.15;7.53;;;5.30;99.90;;;;;;4373227;32;20086;-58
2021/04/11 01:08:33;;;;;;;12.85;7.85;;;5.20;99.90;;;;;;4373546;32;20081;-57
2021/04/11 01:11:13;;;;;;;11.45;7.68;;;5.30;99.90;;;;;;4364033;32;20165;-57
2021/04/11 01:13:50;;;;;;;10.52;7.70;;;5.20;99.90;;;;;;4376429;32;20166;-57
2021/04/11 01:16:17;;;;;;;10.52;7.82;;;5.20;99.90;;;;;;4347979;32;20429;-57
2021/04/11 01:18:43;;;;;;;11.63;9.00;;;5.10;99.90;;;;;;4355994;32;20085;-57
2021/04/11 01:21:45;;;;;;;12.18;8.68;;;5.00;99.90;;;;;;4376300;32;20070;-57
2021/04/11 01:24:35;;;;;;;10.95;8.70;;;4.90;99.90;;;;;;4341954;32;20137;-57
2021/04/11 01:27:01;;;;;;;13.60;8.88;;;4.90;99.90;;;;;;4355844;32;20148;-56
2021/04/11 01:29:27;;;;;;;11.85;8.57;;;4.90;99.90;;;;;;4387983;32;20080;-58
2021/04/11 01:31:53;;;;;;;10.82;8.20;;;4.70;99.90;;;;;;4356619;32;20070;-57
2021/04/11 01:34:19;;;;;;;13.98;8.85;;;4.80;99.90;;;;;;4391515;32;20164;-57
2021/04/11 01:36:48;;;;;;;13.50;9.32;;;4.80;99.90;;;;;;4367429;32;20059;-55
2021/04/11 01:39:19;;;;;;;12.93;9.45;;;4.70;99.90;;;;;;4363956;32;20120;-56
2021/04/11 01:41:46;;;;;;;11.73;9.38;;;4.70;99.90;;;;;;4368678;32;20221;-57
2021/04/11 01:44:15;;;;;;;13.52;9.05;;;4.60;99.90;;;;;;4357975;32;20086;-58
2021/04/11 01:46:41;;;;;;;13.40;9.90;;;4.60;99.90;;;;;;4368544;32;20088;-57
2021/04/11 01:49:08;;;;;;;12.85;9.55;;;4.60;99.90;;;;;;4363895;32;20097;-57
2021/04/11 01:51:37;;;;;;;13.00;9.10;;;4.60;99.90;;;;;;4387412;32;20171;-56
2021/04/11 01:54:15;;;;;;;13.20;9.73;;;4.80;99.90;;;;;;4357662;32;20066;-56
2021/04/11 01:56:42;;;;;;;12.73;9.77;;;4.60;99.90;;;;;;4369153;32;20170;-57
2021/04/11 01:59:13;;;;;;;13.57;10.18;;;4.60;99.90;;;;;;4365877;32;20073;-56
2021/04/11 02:01:39;;;;;;;13.95;10.60;;;4.60;99.90;;;;;;4384469;32;20066;-57
2021/04/11 02:04:06;;;;;;;16.83;11.80;;;4.50;99.90;;;;;;4371401;32;20089;-57
2021/04/11 02:06:42;;;;;;;15.05;11.82;;;4.50;99.90;;;;;;4359941;32;20528;-60
2021/04/11 02:09:21;;;;;;;15.40;11.12;;;4.50;99.90;;;;;;4354226;32;20092;-57
2021/04/11 02:11:47;;;;;;;13.32;9.70;;;4.50;99.90;;;;;;4374121;32;20066;-57
2021/04/11 02:14:14;;;;;;;13.82;10.05;;;4.50;99.90;;;;;;4363076;32;20054;-56
2021/04/11 02:16:40;;;;;;;14.20;9.50;;;4.50;99.90;;;;;;4373562;32;20074;-57
2021/04/11 02:19:23;;;;;;;12.10;9.35;;;4.50;99.90;;;;;;4353184;32;20070;-57
2021/04/11 02:22:25;;;;;;;13.95;10.02;;;4.60;99.90;;;;;;4373549;32;20444;-56
2021/04/11 02:24:51;;;;;;;14.02;9.13;;;4.60;99.90;;;;;;4366153;32;20527;-57
2021/04/11 02:27:20;;;;;;;13.05;9.95;;;4.60;99.90;;;;;;4364957;32;20070;-58
2021/04/11 02:29:46;;;;;;;12.50;9.32;;;4.80;99.90;;;;;;4379655;32;20150;-57
2021/04/11 02:32:13;;;;;;;14.30;10.57;;;4.70;99.90;;;;;;4357812;32;20192;-57
2021/04/11 02:34:40;;;;;;;14.93;10.43;;;4.60;99.90;;;;;;4385940;32;20500;-58
2021/04/11 02:37:30;;;;;;;13.73;10.02;;;4.70;99.90;;;;;;4354240;32;20073;-58
2021/04/11 02:39:57;;;;;;;12.70;9.18;;;4.70;99.90;;;;;;4383957;32;20505;-58
2021/04/11 02:42:29;;;;;;;13.32;9.40;;;4.80;99.90;;;;;;4370612;32;20096;-58
2021/04/11 02:44:57;;;;;;;14.80;9.68;;;4.90;99.90;;;;;;4360181;32;20074;-56
2021/04/11 02:47:24;;;;;;;12.55;8.98;;;4.90;99.90;;;;;;4377059;32;20089;-57
2021/04/11 02:49:51;;;;;;;14.02;10.00;;;4.70;99.90;;;;;;4372480;32;20081;-58
2021/04/11 02:52:29;;;;;;;15.05;10.43;;;4.70;99.90;;;;;;4370354;32;20074;-56
2021/04/11 02:54:56;;;;;;;15.18;10.70;;;4.70;99.90;;;;;;4354131;32;20162;-58
2021/04/11 02:57:22;;;;;;;13.40;9.75;;;4.80;99.90;;;;;;4362404;32;20054;-58
2021/04/11 02:59:51;;;;;;;13.45;9.75;;;4.80;99.90;;;;;;4359791;32;20086;-56
2021/04/11 03:02:18;;;;;;;14.13;9.27;;;4.80;99.90;;;;;;4350375;32;20075;-56
2021/04/11 03:04:44;;;;;;;15.30;9.75;;;4.90;99.90;;;;;;4384756;32;20070;-57
2021/04/11 03:07:45;;;;;;;15.55;9.73;;;4.90;99.90;;;;;;4389902;32;20089;-57
2021/04/11 03:10:25;;;;;;;13.32;9.68;;;4.80;99.90;;;;;;4370031;32;20565;-57
2021/04/11 03:12:52;;;;;;;13.85;9.95;;;4.80;99.90;;;;;;4354519;32;20070;-56
2021/04/11 03:15:18;;;;;;;13.35;9.70;;;4.90;99.90;;;;;;4349898;32;20537;-57
2021/04/11 03:17:45;;;;;;;13.85;10.50;;;4.90;99.90;;;;;;4366837;32;20157;-58
2021/04/11 03:20:22;;;;;;;12.43;9.38;;;5.00;99.90;;;;;;4362230;32;20077;-56
2021/04/11 03:22:53;;;;;;;13.65;9.45;;;5.00;99.90;;;;;;4362643;32;20493;-57
2021/04/11 03:25:19;;;;;;;13.13;9.25;;;5.10;99.90;;;;;;4374293;32;20082;-57
2021/04/11 03:28:07;;;;;;;14.93;10.20;;;5.10;99.90;;;;;;4363634;32;20074;-58
2021/04/11 03:31:31;;;;;;;13.52;9.77;;;5.00;99.90;;;;;;4373522;32;20595;-57
2021/04/11 03:34:00;;;;;;;16.23;11.02;;;5.10;99.90;;;;;;4379800;32;20497;-58
2021/04/11 03:36:27;;;;;;;13.90;10.45;;;5.10;99.90;;;;;;4358755;32;20456;-57
2021/04/11 03:38:53;;;;;;;13.65;9.45;;;5.20;99.90;;;;;;4352906;32;20448;-57
2021/04/11 03:41:19;;;;;;;22.70;11.93;;;5.10;99.90;;;;;;4388195;32;20079;-57
2021/04/11 03:43:50;;;;;;;14.77;10.30;;;5.10;99.90;;;;;;4366460;32;20069;-57
2021/04/11 03:46:29;;;;;;;15.38;9.90;;;5.10;99.90;;;;;;4357438;32;20116;-57
2021/04/11 03:49:07;;;;;;;14.48;10.60;;;5.10;99.90;;;;;;4374553;32;20070;-57
2021/04/11 03:51:37;;;;;;;15.27;9.93;;;5.10;99.90;;;;;;4377650;32;20081;-57
2021/04/11 03:54:15;;;;;;;13.88;9.40;;;5.10;99.90;;;;;;4370561;32;20073;-56
2021/04/11 03:57:18;;;;;;;15.93;10.32;;;5.20;99.90;;;;;;4372980;32;20152;-57
2021/04/11 04:00:09;;;;;;;14.75;10.43;;;5.10;99.90;;;;;;4378159;32;20081;-57
2021/04/11 04:02:38;;;;;;;14.15;9.70;;;5.20;99.90;;;;;;4363125;32;20070;-56
2021/04/11 04:05:07;;;;;;;13.02;9.50;;;5.20;99.90;;;;;;4361872;32;20078;-57
2021/04/11 04:07:56;;;;;;;13.15;9.77;;;5.40;99.90;;;;;;4377455;32;20201;-57
2021/04/11 04:10:26;;;;;;;12.43;9.18;;;5.30;99.90;;;;;;4382480;32;20078;-57
2021/04/11 04:13:31;;;;;;;14.65;10.18;;;5.30;99.90;;;;;;4357818;32;20074;-57
2021/04/11 04:16:21;;;;;;;12.13;8.88;;;5.30;99.90;;;;;;4368485;32;20516;-57
2021/04/11 04:19:17;;;;;;;13.62;9.75;;;5.30;99.90;;;;;;4393379;32;20191;-57
2021/04/11 04:22:12;;;;;;;16.62;9.77;;;5.30;99.90;;;;;;4367247;32;20579;-56
2021/04/11 04:25:16;;;;;;;14.75;9.73;;;5.40;99.90;;;;;;4377004;32;20070;-57
2021/04/11 04:28:01;;;;;;;13.62;10.07;;;5.60;99.90;;;;;;4365944;32;20180;-56
2021/04/11 04:31:05;;;;;;;14.55;10.48;;;5.70;99.90;;;;;;4385574;32;20077;-58
2021/04/11 04:34:12;;;;;;;14.43;10.60;;;5.60;99.90;;;;;;4353547;32;20165;-58
2021/04/11 04:36:45;;;;;;;15.27;10.60;;;5.70;99.90;;;;;;4388376;32;20149;-58
2021/04/11 04:39:51;;;;;;;14.80;11.07;;;5.80;99.90;;;;;;4355225;32;20088;-57
2021/04/11 04:42:28;;;;;;;17.98;11.85;;;6.10;99.90;;;;;;4366233;32;20097;-57
2021/04/11 04:45:09;;;;;;;16.67;11.00;;;6.00;99.90;;;;;;4361928;32;20072;-57
2021/04/11 04:47:52;;;;;;;15.00;10.23;;;6.10;99.90;;;;;;4381891;32;20149;-58
2021/04/11 04:50:21;;;;;;;14.23;9.70;;;6.40;99.90;;;;;;4383809;32;20162;-57
2021/04/11 04:53:07;;;;;;;15.15;10.25;;;6.50;99.90;;;;;;4377678;32;20610;-58
2021/04/11 04:55:35;;;;;;;13.23;9.70;;;6.50;99.90;;;;;;4376866;32;20151;-58
2021/04/11 04:58:12;;;;;;;14.45;10.80;;;6.60;99.90;;;;;;4374014;32;20085;-57
2021/04/11 05:00:46;;;;;;;14.60;9.70;;;6.50;99.90;;;;;;4378985;32;20079;-56
2021/04/11 05:03:16;;;;;;;13.30;8.98;;;6.50;99.90;;;;;;4355012;32;20078;-57
2021/04/11 05:06:22;;;;;;;13.50;9.93;;;6.70;99.90;;;;;;4388104;32;20172;-58
2021/04/11 05:09:10;;;;;;;14.13;9.85;;;7.00;99.90;;;;;;4375187;32;20540;-57
2021/04/11 05:12:16;;;;;;;18.45;11.12;;;7.90;99.90;;;;;;4364368;32;20081;-57
2021/04/11 05:14:54;;;;;;;15.25;11.57;;;7.90;99.90;;;;;;4375005;32;20058;-55
2021/04/11 05:17:35;;;;;;;16.48;12.70;;;7.80;99.90;;;;;;4388897;32;20084;-57
2021/04/11 05:20:17;;;;;;;17.42;12.90;;;7.00;99.90;;;;;;4364082;32;20146;-58
2021/04/11 05:23:13;;;;;;;16.42;11.32;;;7.00;99.90;;;;;;4366445;32;20464;-56
2021/04/11 05:26:33;;;;;;;16.75;11.68;;;7.00;99.90;;;;;;4377965;32;20084;-58
2021/04/11 05:29:15;;;;;;;18.02;12.52;;;7.70;99.90;;;;;;4389965;32;20078;-57
2021/04/11 05:31:41;;;;;;;17.15;12.05;;;7.30;99.90;;;;;;4382651;32;20077;-57
2021/04/11 05:34:10;;;;;;;16.40;12.52;;;7.30;99.90;;;;;;4389060;32;20085;-56
2021/04/11 05:36:51;;;;;;;17.25;12.00;;;7.10;99.90;;;;;;4358183;32;20472;-57
2021/04/11 05:39:46;;;;;;;16.35;11.48;;;7.10;99.90;;;;;;4377551;32;20162;-57
2021/04/11 05:42:56;;;;;;;14.02;10.57;;;7.30;99.90;;;;;;4352076;32;20074;-56
2021/04/11 05:45:38;;;;;;;14.48;11.50;;;7.20;99.90;;;;;;4378046;32;20612;-58
2021/04/11 05:48:24;;;;;;;16.95;12.52;;;7.70;99.90;;;;;;4360934;32;20152;-57
2021/04/11 05:50:58;;;;;;;15.93;11.80;;;7.20;99.90;;;;;;4375496;32;20085;-57
2021/04/11 05:53:48;;;;;;;16.08;11.68;;;7.40;99.90;;;;;;4366219;32;20074;-58
2021/04/11 05:56:25;;;;;;;14.82;11.05;;;7.30;99.90;;;;;;4380953;32;20100;-57
2021/04/11 05:59:02;;;;;;;15.05;10.68;;;7.30;99.90;;;;;;4376608;32;20081;-57
2021/04/11 06:01:39;;;;;;;15.80;12.05;;;7.40;99.90;;;;;;4378124;32;20161;-57
2021/04/11 06:04:26;;;;;;;15.23;10.95;;;7.30;99.90;;;;;;4360089;32;20137;-57
2021/04/11 06:07:06;;;;;;;14.38;10.77;;;7.40;99.90;;;;;;4375755;32;20061;-57
2021/04/11 06:09:51;;;;;;;13.95;10.23;;;7.40;99.90;;;;;;4366944;32;20070;-58
2021/04/11 06:12:36;;;;;;;16.60;10.45;;;7.50;99.90;;;;;;4378044;32;20452;-58
2021/04/11 06:15:06;;;;;;;16.87;10.43;;;7.70;99.90;;;;;;4375587;32;20093;-58
2021/04/11 06:17:33;;;;;;;19.95;11.70;;;7.80;99.90;;;;;;4374776;32;20143;-57
2021/04/11 06:19:59;;;;;;;15.95;10.00;;;7.60;99.90;;;;;;4356734;32;20089;-57
2021/04/11 06:22:40;;;;;;;12.48;8.55;;;7.70;99.90;;;;;;4369181;32;20074;-57
2021/04/11 06:25:17;;;;;;;13.98;9.52;;;7.80;99.90;;;;;;4388611;32;20129;-57
2021/04/11 06:27:47;;;;;;;18.10;10.55;;;7.50;99.90;;;;;;4364797;32;20523;-57
2021/04/11 06:30:32;;;;;;;13.70;9.70;;;7.60;99.90;;;;;;4367995;32;20077;-58
2021/04/11 06:33:22;;;;;;;13.45;9.10;;;7.50;99.90;;;;;;4364651;32;20092;-57
2021/04/11 06:35:53;;;;;;;13.65;9.95;;;7.70;99.90;;;;;;4376723;32;20485;-57
2021/04/11 06:38:28;;;;;;;14.85;11.48;;;7.70;99.90;;;;;;4370002;32;20200;-57
2021/04/11 06:41:06;;;;;;;15.43;11.83;;;7.60;99.90;;;;;;4375032;32;20513;-57
2021/04/11 06:44:13;;;;;;;16.58;10.35;;;7.40;99.90;;;;;;4379796;32;20070;-58
2021/04/11 06:46:49;;;;;;;16.08;10.05;;;7.70;99.90;;;;;;4359330;32;20506;-57
2021/04/11 06:50:00;;;;;;;16.87;10.50;;;7.70;99.90;;;;;;4365994;32;20449;-57
2021/04/11 06:53:23;;;;;;;14.18;10.45;;;7.70;99.90;;;;;;4371274;32;20078;-57
2021/04/11 06:55:58;;;;;;;16.05;11.57;;;7.70;99.90;;;;;;4381607;32;20097;-57
2021/04/11 06:59:04;;;;;;;14.60;10.10;;;7.60;99.90;;;;;;4381581;32;20074;-57
2021/04/11 07:01:58;;;;;;;16.12;10.60;;;7.60;99.90;;;;;;4379188;32;20208;-58
2021/04/11 07:04:56;;;;;;;16.92;10.82;;;8.00;99.90;;;;;;4381606;32;20073;-59
2021/04/11 07:07:37;;;;;;;13.98;10.10;;;7.90;99.90;;;;;;4355619;32;20076;-56
2021/04/11 07:10:28;;;;;;;14.55;10.35;;;8.00;99.90;;;;;;4384408;32;20065;-56
2021/04/11 07:13:30;;;;;;;18.52;10.43;;;7.90;99.90;;;;;;4378474;32;20061;-56
2021/04/11 07:16:58;;;;;;;17.10;11.55;;;8.60;99.90;;;;;;4381004;32;20090;-56
2021/04/11 07:20:20;;;;;;;17.25;10.73;;;8.10;99.90;;;;;;4305261;33;20068;-57
2021/04/11 07:23:49;;;;;;;17.60;12.25;;;8.40;99.90;;;;;;4319710;32;20156;-57
2021/04/11 07:26:34;;;;;;;;;;;8.20;99.90;;;;;;4324579;33;20152;-56
2021/04/11 07:29:45;;;;;;;18.20;12.70;;;8.40;99.90;;;;;;4331410;33;19986;-56
2021/04/11 07:32:33;;;;;;;16.55;12.65;;;8.70;99.90;;;;;;4343304;32;20485;-57
2021/04/11 07:34:59;;;;;;;21.17;14.27;;;8.70;99.90;;;;;;4376010;32;20170;-56
2021/04/11 07:37:43;;;;;;;17.15;12.23;;;8.70;99.90;;;;;;4384082;32;20077;-57
2021/04/11 07:40:39;;;;;;;17.55;12.48;;;8.70;99.90;;;;;;4382586;32;20064;-57
2021/04/11 07:43:29;;;;;;;16.87;12.37;;;8.90;99.90;;;;;;4381402;32;20061;-56
2021/04/11 07:46:07;;;;;;;16.02;12.18;;;8.70;99.90;;;;;;4357413;32;20518;-56
2021/04/11 07:49:09;;;;;;;16.75;11.88;;;8.80;99.90;;;;;;4381483;32;20062;-58
2021/04/11 07:51:57;;;;;;;16.70;11.63;;;9.30;99.90;;;;;;4377169;32;20260;-58
2021/04/11 07:54:57;;;;;;;17.87;11.93;;;9.50;99.90;;;;;;4379656;32;20070;-57
2021/04/11 07:57:34;;;;;;;17.98;11.68;;;9.30;99.90;;;;;;4391401;32;20104;-58
2021/04/11 08:00:21;;;;;;;17.58;12.02;;;9.30;99.90;;;;;;4386419;32;20070;-56
2021/04/11 08:03:24;;;;;;;15.90;11.32;;;9.70;99.90;;;;;;4377279;32;20112;-57
2021/04/11 08:06:31;;;;;;;18.23;11.75;;;9.70;99.90;;;;;;4372732;32;20653;-56
2021/04/11 08:09:12;;;;;;;16.65;12.80;;;10.30;99.90;;;;;;4368057;32;20058;-56
2021/04/11 08:12:21;;;;;;;15.55;11.30;;;9.80;99.90;;;;;;4376795;32;20447;-56
2021/04/11 08:15:10;;;;;;;18.40;12.20;;;9.80;99.90;;;;;;4377623;32;20094;-57
2021/04/11 08:18:20;;;;;;;15.60;12.68;;;10.00;99.90;;;;;;4380941;32;20441;-57
2021/04/11 08:21:04;;;;;;;17.67;14.27;;;10.00;99.90;;;;;;4369327;32;20597;-57
2021/04/11 08:23:48;;;;;;;17.00;12.80;;;9.70;99.90;;;;;;4377865;32;20158;-58
2021/04/11 08:26:52;;;;;;;16.10;11.02;;;9.90;99.90;;;;;;4380187;32;20066;-57
2021/04/11 08:29:29;;;;;;;14.82;9.82;;;10.20;99.90;;;;;;4387402;32;20070;-57
2021/04/11 08:32:32;;;;;;;15.90;11.15;;;10.20;99.90;;;;;;4370291;32;20085;-57
2021/04/11 08:35:45;;;;;;;16.40;10.32;;;10.40;99.90;;;;;;4389986;32;20077;-57
2021/04/11 08:38:44;;;;;;;15.05;10.73;;;10.50;99.90;;;;;;4383700;32;20177;-57
2021/04/11 08:41:31;;;;;;;17.08;11.48;;;10.30;99.90;;;;;;4367831;32;20571;-57
2021/04/11 08:44:31;;;;;;;15.25;11.02;;;10.30;99.90;;;;;;4388718;32;20076;-57
2021/04/11 08:48:12;;;;;;;15.07;11.15;;;10.40;99.90;;;;;;4382195;32;20513;-57
2021/04/11 08:51:13;;;;;;;12.52;8.05;;;10.20;99.90;;;;;;4376609;32;20081;-56
2021/04/11 08:53:52;;;;;;;15.52;10.45;;;10.70;99.90;;;;;;4354605;32;20066;-56
2021/04/11 08:56:29;;;;;;;16.65;10.93;;;10.60;99.90;;;;;;4376647;32;20527;-57
2021/04/11 08:59:16;;;;;;;13.73;9.02;;;10.70;99.90;;;;;;4379260;32;20093;-58
2021/04/11 09:01:48;;;;;;;16.58;10.43;;;10.60;99.90;;;;;;4381834;32;20584;-57
2021/04/11 09:04:39;;;;;;;17.40;11.55;;;10.60;99.90;;;;;;4392412;32;20057;-56
2021/04/11 09:07:49;;;;;;;19.10;12.20;;;10.60;99.90;;;;;;4379088;32;20084;-58
2021/04/11 09:10:40;;;;;;;15.43;10.75;;;10.60;99.90;;;;;;4383527;32;20506;-56
2021/04/11 09:13:40;;;;;;;15.80;10.18;;;10.30;99.90;;;;;;4388158;32;20156;-57
2021/04/11 09:16:31;;;;;;;16.83;10.93;;;10.10;99.90;;;;;;4385002;32;20074;-57
2021/04/11 09:19:15;;;;;;;16.12;10.05;;;10.20;99.90;;;;;;4388669;32;20073;-57
2021/04/11 09:22:32;;;;;;;13.98;9.23;;;10.40;99.90;;;;;;4381834;32;20079;-57
2021/04/11 09:25:18;;;;;;;15.15;9.77;;;10.30;99.90;;;;;;4350128;32;20065;-57
2021/04/11 09:28:21;;;;;;;17.30;11.63;;;10.60;99.90;;;;;;4354521;32;20124;-57
2021/04/11 09:31:27;;;;;;;21.52;13.00;;;10.30;99.90;;;;;;4388607;32;20507;-57
2021/04/11 09:34:44;;;;;;;18.95;13.40;;;10.30;99.90;;;;;;4366948;32;20058;-58
2021/04/11 09:38:07;;;;;;;20.05;14.18;;;9.70;99.90;;;;;;4354415;32;20517;-56
2021/04/11 09:41:06;;;;;;;18.05;12.40;;;9.50;99.90;;;;;;4321584;33;20110;-57
2021/04/11 09:44:18;;;;;;;18.67;13.52;;;9.80;99.90;;;;;;4310816;33;20052;-57
2021/04/11 09:47:19;;;;;;;17.37;12.25;;;9.50;99.90;;;;;;4388331;32;20081;-57
2021/04/11 09:50:13;;;;;;;20.98;12.60;;;9.60;99.90;;;;;;4358724;32;20093;-57
2021/04/11 09:53:10;;;;;;;15.25;9.18;;;9.90;99.90;;;;;;4382613;32;20500;-57
2021/04/11 09:55:45;;;;;;;20.30;12.50;;;9.70;99.90;;;;;;4380823;32;20073;-57
2021/04/11 09:58:23;;;;;;;17.77;12.82;;;9.80;99.90;;;;;;4350510;32;20074;-58
2021/04/11 10:01:10;;;;;;;18.10;11.65;;;9.60;99.90;;;;;;4369906;32;20485;-57
2021/04/11 10:04:18;;;;;;;21.87;13.32;;;9.80;99.90;;;;;;4381194;32;20081;-57
2021/04/11 10:07:21;;;;;;;16.92;10.55;;;9.70;99.90;;;;;;4378123;32;20074;-56
2021/04/11 10:10:05;;;;;;;19.23;12.63;;;10.00;99.90;;;;;;4380762;32;20564;-58
2021/04/11 10:12:58;;;;;;;17.15;12.70;;;9.70;99.90;;;;;;4356756;32;20089;-57
2021/04/11 10:15:51;;;;;;;17.83;12.77;;;9.70;99.90;;;;;;4377325;32;20061;-57
2021/04/11 10:18:49;;;;;;;20.55;13.82;;;9.70;99.90;;;;;;4371945;32;20151;-57
2021/04/11 10:21:42;;;;;;;18.98;13.23;;;10.00;99.90;;;;;;4387944;32;20096;-57
2021/04/11 10:24:30;;;;;;;19.33;12.02;;;10.00;99.90;;;;;;4370009;32;20586;-57
2021/04/11 10:27:43;;;;;;;17.80;12.05;;;9.90;99.90;;;;;;4379965;32;20136;-57
2021/04/11 10:30:11;;;;;;;17.25;10.80;;;9.80;99.90;;;;;;4353865;32;20167;-58
2021/04/11 10:33:04;;;;;;;18.87;13.13;;;9.80;99.90;;;;;;4350642;32;20067;-57
2021/04/11 10:35:48;;;;;;;20.00;12.93;;;9.70;99.90;;;;;;4385352;32;20077;-56
2021/04/11 10:38:20;;;;;;;18.23;12.88;;;9.70;99.90;;;;;;4370941;32;20065;-57
2021/04/11 10:41:16;;;;;;;20.00;12.95;;;9.60;99.90;;;;;;4367455;32;20073;-57
2021/04/11 10:43:55;;;;;;;17.67;12.85;;;9.60;99.90;;;;;;4368305;32;20078;-57
2021/04/11 10:46:30;;;;;;;19.25;12.55;;;9.70;99.90;;;;;;4370163;32;20085;-57
2021/04/11 10:50:02;;;;;;;18.27;12.55;;;9.50;99.90;;;;;;4351277;32;20073;-57
2021/04/11 10:53:01;;;;;;;19.65;13.05;;;9.40;99.90;;;;;;4319739;33;20135;-57
2021/04/11 10:55:58;;;;;;;19.67;12.43;;;9.40;99.90;;;;;;4377977;32;20088;-57
2021/04/11 10:59:23;;;;;;;19.80;12.47;;;9.50;99.90;;;;;;4376483;32;20117;-57
2021/04/11 11:02:14;;;;;;;19.30;13.07;;;9.40;99.90;;;;;;4359103;32;20169;-58
2021/04/11 11:05:30;;;;;;;20.73;15.80;;;9.50;99.90;;;;;;4386360;32;20525;-57
2021/04/11 11:08:20;;;;;;;17.60;11.60;;;9.20;99.90;;;;;;4382616;32;20077;-57
2021/04/11 11:11:27;;;;;;;21.70;12.00;;;9.40;99.90;;;;;;4380281;32;20085;-57
2021/04/11 11:14:12;;;;;;;19.30;13.13;;;9.30;99.90;;;;;;4383113;32;20103;-57
2021/04/11 11:16:51;;;;;;;17.73;13.05;;;9.30;99.90;;;;;;4381998;32;20076;-57
2021/04/11 11:19:46;;;;;;;14.40;10.77;;;9.10;99.90;;;;;;4364245;32;20066;-56
2021/04/11 11:22:50;;;;;;;19.35;12.37;;;9.30;99.90;;;;;;4382031;32;20515;-57
2021/04/11 11:25:39;;;;;;;19.17;13.82;;;9.10;99.90;;;;;;4376444;32;20072;-57
2021/04/11 11:28:59;;;;;;;16.77;10.38;;;9.00;99.90;;;;;;4370534;32;20441;-58
2021/04/11 11:31:52;;;;;;;19.10;11.30;;;9.20;99.90;;;;;;4347290;32;20067;-57
2021/04/11 11:34:38;;;;;;;18.15;11.77;;;9.40;99.90;;;;;;4383707;32;20089;-58
2021/04/11 11:37:32;;;;;;;16.40;10.18;;;9.60;99.90;;;;;;4377282;32;20202;-58
2021/04/11 11:41:03;;;;;;;17.35;11.77;;;9.60;99.90;;;;;;4373090;32;20073;-58
2021/04/11 11:43:35;;;;;;;19.35;12.80;;;9.50;99.90;;;;;;4377593;32;20501;-58
2021/04/11 11:46:23;;;;;;;13.30;8.82;;;9.80;99.90;;;;;;4371431;32;20146;-57
2021/04/11 11:49:27;;;;;;;20.15;13.70;;;9.90;99.90;;;;;;4386230;32;20088;-57
2021/04/11 11:52:18;;;;;;;22.40;12.00;;;10.00;99.90;;;;;;4378883;32;20077;-57
2021/04/11 11:55:25;;;;;;;17.90;10.82;;;10.10;99.90;;;;;;4368507;32;20136;-58
2021/04/11 11:58:29;;;;;;;15.03;9.73;;;10.00;99.90;;;;;;4363779;32;20165;-57
2021/04/11 12:01:00;;;;;;;13.52;8.98;;;9.90;99.90;;;;;;4354978;32;20094;-57
2021/04/11 12:03:33;;;;;;;13.80;10.02;;;9.90;99.90;;;;;;4358660;32;20167;-56
2021/04/11 12:06:29;;;;;;;18.80;10.55;;;9.90;99.90;;;;;;4358993;32;20143;-57
2021/04/11 12:09:22;;;;;;;15.90;10.43;;;9.80;99.90;;;;;;4368082;32;20097;-57
2021/04/11 12:12:04;;;;;;;17.90;10.48;;;9.70;99.90;;;;;;4354456;32;20479;-58
2021/04/11 12:15:01;;;;;;;14.68;9.75;;;9.50;99.90;;;;;;4387416;32;20069;-57
2021/04/11 12:17:44;;;;;;;16.27;10.95;;;9.60;99.90;;;;;;4390487;32;20074;-57
2021/04/11 12:20:22;;;;;;;14.20;9.13;;;9.20;99.90;;;;;;4374409;32;20082;-57
2021/04/11 12:23:12;;;;;;;16.02;10.45;;;9.30;99.90;;;;;;4373372;32;20092;-57
2021/04/11 12:25:39;;;;;;;16.58;9.07;;;8.90;99.90;;;;;;4366548;32;20524;-59
2021/04/11 12:28:12;;;;;;;20.37;11.80;;;9.00;99.90;;;;;;4385079;32;20117;-58
2021/04/11 12:30:40;;;;;;;18.52;10.32;;;8.50;99.90;;;;;;4357072;32;20441;-59
2021/04/11 12:33:39;;;;;;;17.58;10.88;;;8.40;99.90;;;;;;4348667;32;20062;-57
2021/04/11 12:36:12;;;;;;;17.67;12.15;;;8.20;99.90;;;;;;4368198;32;20097;-60
2021/04/11 12:38:39;;;;;;;17.62;11.50;;;8.20;99.90;;;;;;4376083;32;20140;-58
2021/04/11 12:41:39;;;;;;;18.83;11.77;;;8.00;99.90;;;;;;4376673;32;20567;-57
2021/04/11 12:44:38;;;;;;;18.85;11.38;;;8.10;99.90;;;;;;4360171;32;20454;-56
2021/04/11 12:47:27;;;;;;;18.50;11.57;;;8.20;99.90;;;;;;4389410;32;20068;-58
2021/04/11 12:50:25;;;;;;;16.75;10.93;;;8.10;99.90;;;;;;4362196;32;20068;-57
2021/04/11 12:53:46;;;;;;;17.70;11.32;;;8.00;99.90;;;;;;4373494;32;20085;-58
2021/04/11 12:56:15;;;;;;;17.33;11.73;;;8.10;99.90;;;;;;4353490;32;20062;-57
2021/04/11 12:58:54;;;;;;;17.95;11.25;;;8.10;99.90;;;;;;4338975;32;20141;-59
2021/04/11 13:01:30;;;;;;;16.85;10.48;;;8.10;99.90;;;;;;4372336;32;20114;-58
2021/04/11 13:04:22;;;;;;;18.95;10.15;;;8.20;99.90;;;;;;4367767;32;20076;-60
2021/04/11 13:07:02;;;;;;;21.40;13.13;;;8.10;99.90;;;;;;4368578;32;20153;-57
2021/04/11 13:10:14;;;;;;;17.75;11.43;;;8.10;99.90;;;;;;4377245;32;20171;-59
2021/04/11 13:12:54;;;;;;;18.12;11.10;;;8.20;99.90;;;;;;4366836;32;20101;-60
2021/04/11 13:15:46;;;;;;;16.83;10.23;;;8.20;99.90;;;;;;4388729;32;20088;-58
2021/04/11 13:18:41;;;;;;;16.27;10.52;;;8.30;99.90;;;;;;4359793;32;20061;-58
2021/04/11 13:21:39;;;;;;;17.55;11.82;;;8.30;99.90;;;;;;4366472;32;20089;-57
2021/04/11 13:24:30;;;;;;;16.40;11.18;;;8.20;99.90;;;;;;4372262;32;20524;-58
2021/04/11 13:27:11;;;;;;;17.55;12.32;;;8.30;99.90;;;;;;4389200;32;20109;-57
2021/04/11 13:29:52;;;;;;;19.02;12.32;;;8.20;99.90;;;;;;4378855;32;20088;-60
2021/04/11 13:32:57;;;;;;;18.85;12.77;;;8.20;99.90;;;;;;4383146;32;20070;-56
2021/04/11 13:35:52;;;;;;;18.45;12.95;;;8.40;99.90;;;;;;4376908;32;20534;-56
2021/04/11 13:38:38;;;;;;;21.37;12.40;;;8.60;99.90;;;;;;4369694;32;20512;-57
2021/04/11 13:41:25;;;;;;;18.50;13.07;;;8.70;99.90;;;;;;4378856;32;20070;-58
2021/04/11 13:44:26;;;;;;;14.85;9.60;;;8.50;99.90;;;;;;4372686;32;20081;-57
2021/04/11 13:47:19;;;;;;;15.73;11.05;;;8.60;99.90;;;;;;4372839;32;20078;-55
2021/04/11 13:50:12;;;;;;;17.35;12.70;;;8.70;99.90;;;;;;4365214;32;20077;-57
2021/04/11 13:52:56;;;;;;;18.83;12.00;;;8.80;99.90;;;;;;4368604;32;20507;-56
2021/04/11 13:55:39;;;;;;;20.35;14.20;;;8.70;99.90;;;;;;4366383;32;20235;-56
2021/04/11 13:58:19;;;;;;;18.27;12.82;;;8.70;99.90;;;;;;4371723;32;20066;-56
2021/04/11 14:01:08;;;;;;;15.40;10.55;;;8.70;99.90;;;;;;4382973;32;20090;-57
2021/04/11 14:03:41;;;;;;;15.25;9.23;;;8.70;99.90;;;;;;4376890;32;20136;-57
2021/04/11 14:06:36;;;;;;;16.60;10.75;;;8.70;99.90;;;;;;4376976;32;20155;-58
2021/04/11 14:09:24;;;;;;;16.80;11.25;;;8.80;99.90;;;;;;4366795;32;20579;-60
2021/04/11 14:12:30;;;;;;;14.35;9.48;;;8.70;99.90;;;;;;4394618;32;20089;-57